createdAt,value
2022-08-04T00:00:14.332Z,100669.80
2022-08-04T00:02:56.451Z,100674.58
2022-08-04T00:05:49.848Z,100670.36
2022-08-04T00:08:19.678Z,100670.17
2022-08-04T00:10:50.738Z,100671.02
2022-08-04T00:13:23.753Z,100674.89
2022-08-04T00:15:59.190Z,100676.64
2022-08-04T00:18:33.619Z,100673.52
2022-08-04T00:21:05.144Z,100674.41
2022-08-04T00:24:12.081Z,100672.95
2022-08-04T00:26:22.412Z,100669.27
2022-08-04T00:28:53.762Z,100670.92
2022-08-04T00:31:33.308Z,100668.81
2022-08-04T00:34:13.722Z,100676.08
2022-08-04T00:36:43.572Z,100674.14
2022-08-04T00:39:12.767Z,100674.70
2022-08-04T00:41:56.593Z,100675.79
2022-08-04T00:44:35.590Z,100674.70
2022-08-04T00:48:16.672Z,100670.67
2022-08-04T00:51:07.274Z,100676.17
2022-08-04T00:54:07.019Z,100678.02
2022-08-04T00:57:34.071Z,100679.00
2022-08-04T01:00:12.013Z,100681.66
2022-08-04T01:03:09.522Z,100677.60
2022-08-04T01:06:07.771Z,100678.85
2022-08-04T01:09:21.447Z,100681.77
2022-08-04T01:12:04.856Z,100684.75
2022-08-04T01:15:16.523Z,100686.63
2022-08-04T01:18:07.706Z,100688.66
2022-08-04T01:20:48.684Z,100689.64
2022-08-04T01:23:24.761Z,100690.72
2022-08-04T01:26:41.889Z,100690.00
2022-08-04T01:29:14.959Z,100692.91
2022-08-04T01:31:48.862Z,100690.57
2022-08-04T01:34:19.392Z,100691.74
2022-08-04T01:36:53.918Z,100694.95
2022-08-04T01:39:39.995Z,100693.56
2022-08-04T01:42:09.752Z,100692.06
2022-08-04T01:45:05.365Z,100692.40
2022-08-04T01:47:35.794Z,100694.64
2022-08-04T01:50:09.784Z,100694.88
2022-08-04T01:52:38.454Z,100692.55
2022-08-04T01:55:10.217Z,100687.91
2022-08-04T02:01:59.290Z,100692.02
2022-08-04T02:13:34.544Z,100689.48
2022-08-04T02:16:33.675Z,100686.52
2022-08-04T02:19:14.625Z,100680.16
2022-08-04T02:21:44.700Z,100676.80
2022-08-04T02:24:18.929Z,100675.91
2022-08-04T02:26:50.297Z,100673.77
2022-08-04T02:29:32.209Z,100671.27
2022-08-04T02:32:14.003Z,100673.36
2022-08-04T02:35:14.858Z,100668.21
2022-08-04T02:41:56.955Z,100668.45
2022-08-04T02:44:26.945Z,100668.69
2022-08-04T02:46:55.026Z,100667.74
2022-08-04T02:53:38.266Z,100666.21
2022-08-04T02:56:08.079Z,100662.79
2022-08-04T02:58:37.304Z,100665.79
2022-08-04T03:01:05.315Z,100665.06
2022-08-04T03:03:52.059Z,100666.22
2022-08-04T03:06:40.307Z,100666.91
2022-08-04T03:14:00.197Z,100675.75
2022-08-04T03:16:36.706Z,100674.99
2022-08-04T03:19:30.226Z,100677.98
2022-08-04T03:22:12.157Z,100677.29
2022-08-04T03:25:54.475Z,100683.64
2022-08-04T03:28:34.109Z,100681.56
2022-08-04T03:31:48.681Z,100681.39
2022-08-04T03:34:34.199Z,100681.75
2022-08-04T03:37:13.686Z,100684.10
2022-08-04T03:39:52.525Z,100692.63
2022-08-04T03:42:46.995Z,100694.27
2022-08-04T03:45:35.560Z,100691.27
2022-08-04T03:48:24.359Z,100692.70
2022-08-04T03:51:35.851Z,100693.44
2022-08-04T03:54:14.576Z,100697.81
2022-08-04T03:57:10.965Z,100699.54
2022-08-04T03:59:49.116Z,100697.83
2022-08-04T04:02:43.272Z,100699.44
2022-08-04T04:05:58.896Z,100700.30
2022-08-04T04:08:46.759Z,100699.02
2022-08-04T04:11:56.344Z,100701.52
2022-08-04T04:14:40.033Z,100701.26
2022-08-04T04:17:21.946Z,100704.20
2022-08-04T04:20:10.987Z,100708.92
2022-08-04T04:22:58.557Z,100707.75
2022-08-04T04:25:54.149Z,100707.88
2022-08-04T04:28:48.939Z,100706.52
2022-08-04T04:31:31.105Z,100709.50
2022-08-04T04:34:25.531Z,100708.36
2022-08-04T04:36:55.631Z,100714.42
2022-08-04T04:39:31.379Z,100714.75
2022-08-04T04:42:31.026Z,100713.44
2022-08-04T04:45:18.583Z,100712.96
2022-08-04T04:48:31.326Z,100712.36
2022-08-04T04:51:16.724Z,100714.39
2022-08-04T04:54:22.429Z,100717.38
2022-08-04T04:56:53.412Z,100719.20
2022-08-04T04:59:28.011Z,100721.23
2022-08-04T05:02:00.431Z,100728.73
2022-08-04T05:04:42.453Z,100728.33
2022-08-04T05:07:18.333Z,100730.64
2022-08-04T05:10:00.428Z,100733.59
2022-08-04T05:14:32.147Z,100732.04
2022-08-04T05:15:43.001Z,100733.04
2022-08-04T05:18:16.313Z,100727.59
2022-08-04T05:20:48.783Z,100731.92
2022-08-04T05:23:22.319Z,100731.89
2022-08-04T05:25:59.431Z,100734.16
2022-08-04T05:28:36.664Z,100735.30
2022-08-04T05:31:19.413Z,100732.63
2022-08-04T05:33:57.307Z,100729.66
2022-08-04T05:36:41.670Z,100729.92
2022-08-04T05:39:17.119Z,100729.17
2022-08-04T05:41:48.155Z,100730.66
2022-08-04T05:44:25.067Z,100729.73
2022-08-04T05:46:55.375Z,100734.38
2022-08-04T05:49:29.719Z,100733.71
2022-08-04T05:52:03.173Z,100734.19
2022-08-04T05:54:35.488Z,100733.98
2022-08-04T05:57:07.537Z,100739.33
2022-08-04T05:59:38.898Z,100744.23
2022-08-04T06:02:08.380Z,100747.70
2022-08-04T06:04:39.144Z,100743.71
2022-08-04T06:07:08.147Z,100748.16
2022-08-04T06:09:35.127Z,100750.70
2022-08-04T06:12:07.068Z,100752.38
2022-08-04T06:14:43.630Z,100751.34
2022-08-04T06:18:32.241Z,100750.72
2022-08-04T06:20:18.116Z,100751.80
2022-08-04T06:22:59.072Z,100750.42
2022-08-04T06:25:31.577Z,100751.21
2022-08-04T06:28:00.212Z,100752.02
2022-08-04T06:30:31.255Z,100755.58
2022-08-04T06:33:04.970Z,100758.08
2022-08-04T06:35:33.973Z,100759.64
2022-08-04T06:38:02.316Z,100757.25
2022-08-04T06:40:33.426Z,100760.06
2022-08-04T06:43:03.433Z,100761.45
2022-08-04T06:45:32.342Z,100761.88
2022-08-04T06:48:01.567Z,100759.83
2022-08-04T06:51:31.899Z,100761.45
2022-08-04T06:53:17.652Z,100756.80
2022-08-04T06:55:47.577Z,100755.61
2022-08-04T06:58:16.704Z,100756.23
2022-08-04T07:00:48.444Z,100756.52
2022-08-04T07:03:18.579Z,100749.48
2022-08-04T07:05:51.787Z,100750.36
2022-08-04T07:08:20.028Z,100750.09
2022-08-04T07:10:47.823Z,100752.92
2022-08-04T07:13:17.475Z,100751.15
2022-08-04T07:15:47.059Z,100755.21
2022-08-04T07:18:13.944Z,100756.21
2022-08-04T07:20:45.709Z,100754.58
2022-08-04T07:23:17.774Z,100755.80
2022-08-04T07:26:11.025Z,100755.59
2022-08-04T07:28:40.230Z,100755.86
2022-08-04T07:31:10.818Z,100757.64
2022-08-04T07:34:16.535Z,100758.92
2022-08-04T07:36:50.867Z,100760.41
2022-08-04T07:39:27.210Z,100761.75
2022-08-04T07:41:57.330Z,100760.39
2022-08-04T07:44:25.388Z,100756.81
2022-08-04T07:46:52.329Z,100759.12
2022-08-04T07:49:55.037Z,100763.09
2022-08-04T07:52:08.013Z,100757.45
2022-08-04T07:54:36.030Z,100755.20
2022-08-04T07:57:04.080Z,100747.91
2022-08-04T07:59:31.765Z,100745.85
2022-08-04T08:02:03.214Z,100746.41
2022-08-04T08:04:30.990Z,100744.58
2022-08-04T08:06:59.088Z,100746.78
2022-08-04T08:09:26.045Z,100741.56
2022-08-04T08:12:36.468Z,100743.88
2022-08-04T08:14:41.883Z,100747.07
2022-08-04T08:17:08.780Z,100746.59
2022-08-04T08:19:36.496Z,100744.65
2022-08-04T08:22:04.010Z,100746.51
2022-08-04T08:24:34.976Z,100744.92
2022-08-04T08:27:04.614Z,100749.01
2022-08-04T08:29:34.501Z,100749.15
2022-08-04T08:32:08.227Z,100746.56
2022-08-04T08:34:35.935Z,100745.63
2022-08-04T08:37:42.122Z,100745.48
2022-08-04T08:40:54.002Z,100746.51
2022-08-04T08:44:04.803Z,100749.27
2022-08-04T08:46:48.990Z,100751.21
2022-08-04T08:50:02.848Z,100749.95
2022-08-04T08:52:56.387Z,100748.21
2022-08-04T08:55:32.947Z,100746.67
2022-08-04T08:58:26.917Z,100743.72
2022-08-04T09:01:21.410Z,100745.13
2022-08-04T09:04:22.734Z,100744.02
2022-08-04T09:07:10.500Z,100744.22
2022-08-04T09:09:47.008Z,100745.52
2022-08-04T09:12:41.860Z,100744.11
2022-08-04T09:15:35.052Z,100737.50
2022-08-04T09:18:07.749Z,100739.17
2022-08-04T09:20:47.550Z,100738.60
2022-08-04T09:23:28.867Z,100737.89
2022-08-04T09:26:09.348Z,100740.06
2022-08-04T09:28:54.153Z,100741.33
2022-08-04T09:31:28.578Z,100740.48
2022-08-04T09:34:26.903Z,100736.29
2022-08-04T09:37:13.476Z,100736.66
2022-08-04T09:39:56.211Z,100735.14
2022-08-04T09:42:45.157Z,100742.11
2022-08-04T09:45:43.323Z,100734.77
2022-08-04T09:48:31.590Z,100734.71
2022-08-04T09:51:00.049Z,100734.30
2022-08-04T09:53:54.835Z,100737.05
2022-08-04T09:56:43.082Z,100738.48
2022-08-04T09:59:24.395Z,100735.48
2022-08-04T10:01:59.984Z,100734.17
2022-08-04T10:04:31.571Z,100732.61
2022-08-04T10:07:07.421Z,100733.96
2022-08-04T10:10:01.426Z,100729.60
2022-08-04T10:12:59.395Z,100730.52
2022-08-04T10:16:01.774Z,100726.42
2022-08-04T10:18:45.706Z,100722.79
2022-08-04T10:21:24.467Z,100725.23
2022-08-04T10:24:31.144Z,100723.57
2022-08-04T10:27:04.752Z,100723.45
2022-08-04T10:29:42.649Z,100714.71
2022-08-04T10:32:16.332Z,100714.45
2022-08-04T10:35:14.201Z,100710.07
2022-08-04T10:38:00.217Z,100716.95
2022-08-04T10:40:48.068Z,100714.86
2022-08-04T10:43:52.205Z,100711.98
2022-08-04T10:46:30.314Z,100705.00
2022-08-04T10:49:05.266Z,100705.81
2022-08-04T10:51:58.227Z,100698.40
2022-08-04T10:54:51.134Z,100701.69
2022-08-04T10:57:48.519Z,100700.36
2022-08-04T11:00:21.816Z,100700.67
2022-08-04T11:03:35.217Z,100695.08
2022-08-04T11:06:05.179Z,100689.45
2022-08-04T11:08:38.976Z,100691.13
2022-08-04T11:11:08.060Z,100683.91
2022-08-04T11:13:47.232Z,100681.83
2022-08-04T11:16:21.286Z,100687.65
2022-08-04T11:18:57.124Z,100683.75
2022-08-04T11:21:33.636Z,100677.26
2022-08-04T11:24:09.062Z,100684.39
2022-08-04T11:26:50.183Z,100680.56
2022-08-04T11:29:25.534Z,100678.94
2022-08-04T11:31:53.738Z,100674.52
2022-08-04T11:34:22.482Z,100678.00
2022-08-04T11:37:14.721Z,100678.16
2022-08-04T11:39:52.092Z,100678.95
2022-08-04T11:42:23.742Z,100679.89
2022-08-04T11:44:56.146Z,100677.10
2022-08-04T11:47:30.570Z,100677.85
2022-08-04T11:50:10.063Z,100675.08
2022-08-04T11:52:42.756Z,100679.90
2022-08-04T11:55:13.894Z,100680.60
2022-08-04T11:57:41.061Z,100678.39
2022-08-04T12:00:12.872Z,100678.31
2022-08-04T12:02:42.678Z,100670.31
2022-08-04T12:05:35.534Z,100667.19
2022-08-04T12:08:19.658Z,100667.46
2022-08-04T12:11:09.608Z,100666.46
2022-08-04T12:14:00.757Z,100662.69
2022-08-04T12:16:43.203Z,100663.38
2022-08-04T12:20:04.858Z,100666.33
2022-08-04T12:22:48.056Z,100660.64
2022-08-04T12:25:44.767Z,100651.94
2022-08-04T12:29:06.873Z,100655.90
2022-08-04T12:31:48.482Z,100652.48
2022-08-04T12:34:43.335Z,100653.17
2022-08-04T12:37:26.974Z,100648.71
2022-08-04T12:40:21.713Z,100647.16
2022-08-04T12:42:59.780Z,100640.58
2022-08-04T12:45:28.942Z,100642.39
2022-08-04T12:47:59.707Z,100637.61
2022-08-04T12:50:28.195Z,100633.55
2022-08-04T12:53:02.664Z,100634.62
2022-08-04T12:55:34.249Z,100641.43
2022-08-04T12:58:04.332Z,100639.30
2022-08-04T13:00:41.192Z,100639.98
2022-08-04T13:03:15.709Z,100631.34
2022-08-04T13:05:45.199Z,100632.12
2022-08-04T13:08:13.834Z,100631.21
2022-08-04T13:10:44.728Z,100628.73
2022-08-04T13:13:24.575Z,100628.59
2022-08-04T13:16:04.393Z,100627.04
2022-08-04T13:18:42.842Z,100626.06
2022-08-04T13:21:20.432Z,100626.31
2022-08-04T13:24:10.419Z,100621.57
2022-08-04T13:27:03.691Z,100613.09
2022-08-04T13:29:59.734Z,100615.98
2022-08-04T13:32:28.838Z,100604.30
2022-08-04T13:34:57.605Z,100606.64
2022-08-04T13:37:35.334Z,100606.61
2022-08-04T13:40:10.129Z,100607.66
2022-08-04T13:42:37.582Z,100604.80
2022-08-04T13:45:08.109Z,100602.79
2022-08-04T13:47:39.436Z,100605.20
2022-08-04T13:50:20.463Z,100605.90
2022-08-04T13:52:48.140Z,100598.10
2022-08-04T13:55:33.372Z,100590.96
2022-08-04T13:58:09.216Z,100592.15
2022-08-04T14:00:59.228Z,100588.66
2022-08-04T14:03:53.842Z,100590.92
2022-08-04T14:06:45.333Z,100586.99
2022-08-04T14:09:18.713Z,100581.23
2022-08-04T14:12:08.951Z,100583.99
2022-08-04T14:15:05.129Z,100579.16
2022-08-04T14:17:32.080Z,100574.52
2022-08-04T14:20:01.974Z,100573.16
2022-08-04T14:22:31.747Z,100572.48
2022-08-04T14:25:16.081Z,100569.45
2022-08-04T14:27:50.031Z,100568.61
2022-08-04T14:30:25.826Z,100570.04
2022-08-04T14:32:58.975Z,100569.09
2022-08-04T14:35:57.621Z,100564.75
2022-08-04T14:38:24.314Z,100566.81
2022-08-04T14:41:00.144Z,100565.09
2022-08-04T14:43:29.821Z,100562.65
2022-08-04T14:46:04.977Z,100558.13
2022-08-04T14:48:31.722Z,100562.95
2022-08-04T14:50:58.570Z,100563.48
2022-08-04T14:53:29.545Z,100562.39
2022-08-04T14:55:59.600Z,100561.77
2022-08-04T14:58:35.571Z,100559.45
2022-08-04T15:01:12.456Z,100557.44
2022-08-04T15:03:49.877Z,100559.45
2022-08-04T15:06:26.483Z,100556.57
2022-08-04T15:08:56.406Z,100556.64
2022-08-04T15:11:24.560Z,100557.50
2022-08-04T15:13:55.902Z,100556.02
2022-08-04T15:16:25.285Z,100552.86
2022-08-04T15:18:54.878Z,100552.31
2022-08-04T15:21:26.250Z,100550.91
2022-08-04T15:23:53.195Z,100548.91
2022-08-04T15:26:33.151Z,100550.73
2022-08-04T15:29:17.965Z,100550.48
2022-08-04T15:32:06.694Z,100544.83
2022-08-04T15:34:47.610Z,100545.14
2022-08-04T15:37:29.595Z,100543.37
2022-08-04T15:40:01.241Z,100544.19
2022-08-04T15:42:36.174Z,100544.40
2022-08-04T15:46:41.787Z,100539.56
2022-08-04T15:48:10.886Z,100533.01
2022-08-04T15:51:00.333Z,100538.20
2022-08-04T15:54:01.829Z,100539.11
2022-08-04T15:56:27.724Z,100542.05
2022-08-04T15:58:55.682Z,100544.65
2022-08-04T16:01:23.418Z,100545.35
2022-08-04T16:03:59.301Z,100543.89
2022-08-04T16:06:29.009Z,100539.63
2022-08-04T16:09:02.320Z,100540.20
2022-08-04T16:11:40.234Z,100535.48
2022-08-04T16:14:11.337Z,100544.11
2022-08-04T16:16:47.512Z,100545.38
2022-08-04T16:19:23.149Z,100542.76
2022-08-04T16:21:56.792Z,100543.70
2022-08-04T16:24:37.969Z,100544.59
2022-08-04T16:27:12.995Z,100540.80
2022-08-04T16:29:39.798Z,100542.48
2022-08-04T16:32:11.155Z,100543.39
2022-08-04T16:34:48.531Z,100539.23
2022-08-04T16:37:19.578Z,100534.21
2022-08-04T16:39:49.975Z,100533.80
2022-08-04T16:42:30.491Z,100530.63
2022-08-04T16:45:11.841Z,100532.46
2022-08-04T16:47:47.904Z,100527.81
2022-08-04T16:50:15.707Z,100524.11
2022-08-04T16:52:48.406Z,100527.09
2022-08-04T16:55:18.488Z,100526.14
2022-08-04T16:57:54.183Z,100532.12
2022-08-04T17:00:35.414Z,100530.77
2022-08-04T17:03:07.767Z,100532.08
2022-08-04T17:05:39.259Z,100528.54
2022-08-04T17:10:56.090Z,100530.09
2022-08-04T17:14:02.530Z,100528.46
2022-08-04T17:16:19.045Z,100525.16
2022-08-04T17:18:49.476Z,100528.15
2022-08-04T17:21:20.135Z,100530.39
2022-08-04T17:24:16.307Z,100529.37
2022-08-04T17:26:53.889Z,100532.10
2022-08-04T17:29:43.503Z,100531.48
2022-08-04T17:32:21.598Z,100534.45
2022-08-04T17:34:57.446Z,100540.37
2022-08-04T17:37:53.075Z,100535.85
2022-08-04T17:40:18.068Z,100538.58
2022-08-04T17:43:01.350Z,100534.03
2022-08-04T17:48:24.411Z,100536.38
2022-08-04T17:50:52.357Z,100538.55
2022-08-04T17:54:01.705Z,100538.60
2022-08-04T17:56:51.844Z,100537.79
2022-08-04T17:59:55.566Z,100542.48
2022-08-04T18:02:09.993Z,100546.65
2022-08-04T18:04:49.160Z,100545.05
2022-08-04T18:08:37.932Z,100546.84
2022-08-04T18:13:31.328Z,100554.61
2022-08-04T18:16:21.962Z,100556.28
2022-08-04T18:19:13.679Z,100557.60
2022-08-04T18:21:46.207Z,100557.45
2022-08-04T18:24:34.429Z,100559.81
2022-08-04T18:27:06.360Z,100559.77
2022-08-04T18:29:39.164Z,100552.85
2022-08-04T18:32:08.984Z,100561.72
2022-08-04T18:34:40.564Z,100563.45
2022-08-04T18:37:32.131Z,100562.71
2022-08-04T18:40:17.391Z,100562.48
2022-08-04T18:42:42.167Z,100559.98
2022-08-04T18:45:11.679Z,100562.06
2022-08-04T18:47:54.419Z,100557.33
2022-08-04T18:51:01.668Z,100562.67
2022-08-04T18:53:12.238Z,100561.74
2022-08-04T18:55:56.645Z,100564.13
2022-08-04T18:58:27.641Z,100565.73
2022-08-04T19:00:56.129Z,100570.12
2022-08-04T19:03:30.545Z,100570.04
2022-08-04T19:05:58.304Z,100574.73
2022-08-04T19:08:34.832Z,100573.02
2022-08-04T19:11:37.132Z,100572.89
2022-08-04T19:13:58.449Z,100575.45
2022-08-04T19:16:30.734Z,100577.55
2022-08-04T19:19:02.266Z,100575.30
2022-08-04T19:22:00.768Z,100578.11
2022-08-04T19:24:31.938Z,100581.05
2022-08-04T19:27:07.417Z,100581.23
2022-08-04T19:29:40.709Z,100579.37
2022-08-04T19:32:14.502Z,100579.32
2022-08-04T19:34:46.491Z,100581.25
2022-08-04T19:37:56.953Z,100574.88
2022-08-04T19:40:10.138Z,100578.83
2022-08-04T19:42:38.258Z,100578.17
2022-08-04T19:45:07.558Z,100577.05
2022-08-04T19:48:17.467Z,100577.64
2022-08-04T19:50:23.793Z,100578.21
2022-08-04T19:52:52.738Z,100578.46
2022-08-04T19:55:22.452Z,100572.51
2022-08-04T19:57:52.493Z,100574.93
2022-08-04T20:00:32.891Z,100575.33
2022-08-04T20:03:11.606Z,100574.73
2022-08-04T20:05:54.159Z,100569.66
2022-08-04T20:08:24.363Z,100575.57
2022-08-04T20:10:52.513Z,100571.45
2022-08-04T20:13:21.936Z,100570.31
2022-08-04T20:15:55.401Z,100571.40
2022-08-04T20:18:36.339Z,100578.02
2022-08-04T20:21:19.819Z,100578.38
2022-08-04T20:23:52.697Z,100582.33
2022-08-04T20:26:20.340Z,100585.71
2022-08-04T20:28:51.642Z,100586.75
2022-08-04T20:31:19.323Z,100588.31
2022-08-04T20:33:49.097Z,100591.13
2022-08-04T20:36:16.368Z,100592.03
2022-08-04T20:38:43.114Z,100594.98
2022-08-04T20:41:10.100Z,100598.29
2022-08-04T20:43:40.237Z,100596.73
2022-08-04T20:46:17.867Z,100599.30
2022-08-04T20:48:45.540Z,100593.95
2022-08-04T20:51:20.080Z,100594.55
2022-08-04T20:53:58.616Z,100590.73
2022-08-04T20:56:31.353Z,100594.11
2022-08-04T20:58:59.979Z,100593.98
2022-08-04T21:01:30.796Z,100593.16
2022-08-04T21:04:28.121Z,100593.40
2022-08-04T21:06:57.108Z,100594.92
2022-08-04T21:09:26.668Z,100593.55
2022-08-04T21:12:07.473Z,100592.69
2022-08-04T21:14:36.134Z,100593.70
2022-08-04T21:17:03.974Z,100596.44
2022-08-04T21:19:36.836Z,100593.34
2022-08-04T21:22:10.230Z,100595.95
2022-08-04T21:24:37.828Z,100594.58
2022-08-04T21:27:13.737Z,100591.79
2022-08-04T21:29:41.361Z,100594.00
2022-08-04T21:32:09.728Z,100592.39
2022-08-04T21:34:39.153Z,100594.23
2022-08-04T21:37:09.904Z,100596.52
2022-08-04T21:39:50.015Z,100595.67
2022-08-04T21:42:28.845Z,100593.71
2022-08-04T21:44:57.002Z,100595.49
2022-08-04T21:47:24.026Z,100598.13
2022-08-04T21:49:56.115Z,100598.96
2022-08-04T21:52:24.975Z,100597.50
2022-08-04T21:54:54.106Z,100591.61
2022-08-04T21:57:24.834Z,100588.48
2022-08-04T21:59:52.758Z,100594.98
2022-08-04T22:02:19.753Z,100594.41
2022-08-04T22:04:48.540Z,100591.88
2022-08-04T22:07:23.033Z,100592.17
2022-08-04T22:10:00.255Z,100590.55
2022-08-04T22:12:30.255Z,100588.60
2022-08-04T22:17:47.632Z,100591.69
2022-08-04T22:20:27.860Z,100588.16
2022-08-04T22:23:00.119Z,100585.75
2022-08-04T22:25:33.821Z,100588.70
2022-08-04T22:28:07.757Z,100588.42
2022-08-04T22:30:37.531Z,100585.09
2022-08-04T22:33:08.242Z,100586.36
2022-08-04T22:35:48.906Z,100585.34
2022-08-04T22:38:20.568Z,100583.94
2022-08-04T22:41:04.619Z,100583.26
2022-08-04T22:43:34.622Z,100582.20
2022-08-04T22:46:11.933Z,100585.41
2022-08-04T22:48:43.748Z,100580.48
2022-08-04T22:51:12.878Z,100579.73
2022-08-04T22:53:40.324Z,100578.80
2022-08-04T22:56:09.679Z,100578.61
2022-08-04T22:58:45.276Z,100578.75
2022-08-04T23:01:15.171Z,100579.27
2022-08-04T23:03:55.988Z,100576.23
2022-08-04T23:06:28.538Z,100575.26
2022-08-04T23:08:57.724Z,100577.42
2022-08-04T23:11:25.000Z,100571.73
2022-08-04T23:14:03.909Z,100566.92
2022-08-04T23:16:31.294Z,100562.61
2022-08-04T23:19:00.333Z,100561.88
2022-08-04T23:21:41.016Z,100561.45
2022-08-04T23:24:14.096Z,100555.44
2022-08-04T23:26:41.617Z,100553.80
2022-08-04T23:29:08.638Z,100550.44
2022-08-04T23:31:41.315Z,100549.95
2022-08-04T23:34:15.284Z,100539.98
2022-08-04T23:36:45.599Z,100544.80
2022-08-04T23:39:14.348Z,100541.13
2022-08-04T23:41:54.701Z,100541.73
2022-08-04T23:44:26.782Z,100538.65
2022-08-04T23:46:58.768Z,100536.77
2022-08-04T23:49:44.588Z,100537.89
2022-08-04T23:52:15.802Z,100540.77
2022-08-04T23:54:54.801Z,100537.66
2022-08-04T23:57:22.588Z,100537.61
2022-08-04T23:59:54.290Z,100533.65
